Time;durP1;ratioP1;P1;durP2;ratioP2;P2;SDS_P1;SDS_P2;PMS_P1;PMS_P2;Temp;Humidity;BMP_temperature;BMP_pressure;BME280_temperature;BME280_humidity;BME280_pressure;Samples;Min_cycle;Max_cycle;Signal;HPM_P1;HPM_P2
2023/06/24 00:02:16;;;;;;;;;;;29.10;96.00;;;;;;5094654;28;19915;-75
2023/06/24 00:04:41;;;;;;;;;;;29.10;96.00;;;;;;5094665;28;19908;-74
2023/06/24 00:07:07;;;;;;;;;;;29.00;96.20;;;;;;5094179;28;20359;-75
2023/06/24 00:09:33;;;;;;;;;;;29.00;96.20;;;;;;5075966;28;19908;-75
2023/06/24 00:11:59;;;;;;;;;;;29.00;95.80;;;;;;5094557;28;19924;-74
2023/06/24 00:14:26;;;;;;;;;;;29.00;95.80;;;;;;5094447;28;19908;-75
2023/06/24 00:16:53;;;;;;;;;;;29.00;95.90;;;;;;5094720;28;20257;-75
2023/06/24 00:19:23;;;;;;;;;;;29.00;95.90;;;;;;5094038;28;19912;-75
2023/06/24 00:21:51;;;;;;;;;;;29.00;95.90;;;;;;5075540;28;20018;-75
2023/06/24 00:24:17;;;;;;;;;;;28.90;96.00;;;;;;5094152;28;19908;-75
2023/06/24 00:26:43;;;;;;;;;;;28.90;95.80;;;;;;5094335;28;20012;-76
2023/06/24 00:29:09;;;;;;;;;;;28.90;95.90;;;;;;5075756;28;20015;-74
2023/06/24 00:31:35;;;;;;;;;;;28.90;95.90;;;;;;5093889;28;20013;-75
2023/06/24 00:34:00;;;;;;;;;;;28.90;95.90;;;;;;5075469;28;20011;-74
2023/06/24 00:36:26;;;;;;;;;;;28.80;96.00;;;;;;5075289;28;19914;-74
2023/06/24 00:38:52;;;;;;;;;;;28.80;96.10;;;;;;5075520;28;19916;-75
2023/06/24 00:41:18;;;;;;;;;;;28.80;96.30;;;;;;5094215;28;19908;-75
2023/06/24 00:43:44;;;;;;;;;;;28.80;96.20;;;;;;5093830;28;19908;-75
2023/06/24 00:46:10;;;;;;;;;;;28.70;96.20;;;;;;5093565;28;19908;-74
2023/06/24 00:48:36;;;;;;;;;;;28.70;96.20;;;;;;5093446;28;19915;-74
2023/06/24 00:51:02;;;;;;;;;;;28.70;96.00;;;;;;5093969;28;20294;-75
2023/06/24 00:53:28;;;;;;;;;;;28.70;96.10;;;;;;5094196;28;19915;-75
2023/06/24 00:55:55;;;;;;;;;;;28.70;96.30;;;;;;5093471;28;19915;-75
2023/06/24 00:58:21;;;;;;;;;;;28.70;96.40;;;;;;5093911;28;19908;-75
2023/06/24 01:00:56;;;;;;;;;;;28.70;96.40;;;;;;5093660;28;20368;-76
2023/06/24 01:03:25;;;;;;;;;;;28.60;96.40;;;;;;5093716;28;19908;-75
2023/06/24 01:05:50;;;;;;;;;;;28.60;96.50;;;;;;5093818;28;19961;-75
2023/06/24 01:08:19;;;;;;;;;;;28.50;96.60;;;;;;5092909;28;19909;-76
2023/06/24 01:10:45;;;;;;;;;;;28.50;96.60;;;;;;5093318;28;19966;-75
2023/06/24 01:13:10;;;;;;;;;;;28.50;96.80;;;;;;5093779;28;19908;-75
2023/06/24 01:15:36;;;;;;;;;;;28.40;96.80;;;;;;5075027;28;20003;-75
2023/06/24 01:18:08;;;;;;;;;;;28.40;96.90;;;;;;5093139;28;19908;-75
2023/06/24 01:20:34;;;;;;;;;;;28.40;97.00;;;;;;5093626;28;20331;-73
2023/06/24 01:23:11;;;;;;;;;;;28.40;96.80;;;;;;5092847;28;20380;-73
2023/06/24 01:25:37;;;;;;;;;;;28.40;96.50;;;;;;5093237;28;19908;-73
2023/06/24 01:28:10;;;;;;;;;;;28.40;96.50;;;;;;5092803;28;19915;-73
2023/06/24 01:30:42;;;;;;;;;;;28.40;96.50;;;;;;5093438;28;19912;-73
2023/06/24 01:33:10;;;;;;;;;;;28.40;97.00;;;;;;5092800;28;19931;-72
2023/06/24 01:35:36;;;;;;;;;;;28.30;97.00;;;;;;5093359;28;20284;-73
2023/06/24 01:38:11;;;;;;;;;;;28.30;96.90;;;;;;5092716;28;20076;-72
2023/06/24 01:40:43;;;;;;;;;;;28.30;96.80;;;;;;5093042;28;20054;-73
2023/06/24 01:43:09;;;;;;;;;;;28.30;96.60;;;;;;5092815;28;20009;-72
2023/06/24 01:45:42;;;;;;;;;;;28.30;96.60;;;;;;5092876;28;20020;-73
2023/06/24 01:48:14;;;;;;;;;;;28.30;96.60;;;;;;5092904;28;19938;-73
2023/06/24 01:50:48;;;;;;;;;;;28.20;96.50;;;;;;5074569;28;20392;-73
2023/06/24 01:53:14;;;;;;;;;;;28.20;96.50;;;;;;5092575;28;20402;-73
2023/06/24 01:55:41;;;;;;;;;;;28.20;96.90;;;;;;5092843;28;20359;-73
2023/06/24 01:58:07;;;;;;;;;;;28.20;97.10;;;;;;5092817;28;19909;-74
2023/06/24 02:00:34;;;;;;;;;;;28.20;96.40;;;;;;5092914;28;20372;-73
2023/06/24 02:03:01;;;;;;;;;;;28.20;95.80;;;;;;5074456;28;19908;-75
2023/06/24 02:05:27;;;;;;;;;;;28.30;95.90;;;;;;5092811;28;19915;-74
2023/06/24 02:07:53;;;;;;;;;;;28.30;96.10;;;;;;5092290;28;20304;-74
2023/06/24 02:10:20;;;;;;;;;;;28.20;96.10;;;;;;5074320;28;20015;-73
2023/06/24 02:12:47;;;;;;;;;;;28.20;96.20;;;;;;5092259;28;20390;-74
2023/06/24 02:15:15;;;;;;;;;;;28.10;95.70;;;;;;5092954;28;19940;-73
2023/06/24 02:17:41;;;;;;;;;;;28.10;95.30;;;;;;5092451;28;19909;-73
2023/06/24 02:20:10;;;;;;;;;;;28.10;95.20;;;;;;5095205;28;19909;-73
2023/06/24 02:22:39;;;;;;;;;;;28.10;95.10;;;;;;5096097;28;19943;-74
2023/06/24 02:25:06;;;;;;;;;;;28.10;94.80;;;;;;5096564;28;19938;-73
2023/06/24 02:27:32;;;;;;;;;;;28.10;94.60;;;;;;5095902;28;20007;-74
2023/06/24 02:29:59;;;;;;;;;;;28.10;94.20;;;;;;5077706;28;19908;-73
2023/06/24 02:32:25;;;;;;;;;;;28.10;94.10;;;;;;5095692;28;19996;-74
2023/06/24 02:34:51;;;;;;;;;;;28.10;94.10;;;;;;5095787;28;19908;-73
2023/06/24 02:37:17;;;;;;;;;;;28.10;94.30;;;;;;5095806;28;19915;-73
2023/06/24 02:39:44;;;;;;;;;;;28.10;94.40;;;;;;5095872;28;19908;-74
2023/06/24 02:42:11;;;;;;;;;;;28.10;94.60;;;;;;5095772;28;19912;-73
2023/06/24 02:44:38;;;;;;;;;;;28.00;95.40;;;;;;5095916;28;19908;-73
2023/06/24 02:47:05;;;;;;;;;;;28.00;95.10;;;;;;5095622;28;19908;-74
2023/06/24 02:49:31;;;;;;;;;;;28.00;94.70;;;;;;5095807;28;20002;-74
2023/06/24 02:51:57;;;;;;;;;;;27.90;94.90;;;;;;5077079;28;20019;-75
2023/06/24 02:54:23;;;;;;;;;;;27.80;95.10;;;;;;5095879;28;19915;-73
2023/06/24 02:56:49;;;;;;;;;;;27.80;95.10;;;;;;5095706;28;19912;-73
2023/06/24 02:59:15;;;;;;;;;;;27.80;94.90;;;;;;5095543;28;19915;-74
2023/06/24 03:01:45;;;;;;;;;;;27.80;94.50;;;;;;5077109;28;19915;-73
2023/06/24 03:04:11;;;;;;;;;;;27.70;94.60;;;;;;5095225;28;20011;-74
2023/06/24 03:06:39;;;;;;;;;;;27.70;94.70;;;;;;5095545;28;20018;-73
2023/06/24 03:09:05;;;;;;;;;;;27.70;95.10;;;;;;5095293;28;19912;-73
2023/06/24 03:11:31;;;;;;;;;;;27.70;95.40;;;;;;5094901;28;19920;-73
2023/06/24 03:13:57;;;;;;;;;;;27.70;95.80;;;;;;5076883;28;20378;-73
2023/06/24 03:16:23;;;;;;;;;;;27.60;96.20;;;;;;5095091;28;19916;-73
2023/06/24 03:18:49;;;;;;;;;;;27.60;96.50;;;;;;5095550;28;20226;-72
2023/06/24 03:21:15;;;;;;;;;;;27.50;96.60;;;;;;5076627;28;19914;-73
2023/06/24 03:23:41;;;;;;;;;;;27.40;96.70;;;;;;5095375;28;19908;-73
2023/06/24 03:26:09;;;;;;;;;;;27.40;96.90;;;;;;5094850;28;19912;-73
2023/06/24 03:28:35;;;;;;;;;;;27.20;97.20;;;;;;5095128;28;20004;-73
2023/06/24 03:31:01;;;;;;;;;;;27.10;97.50;;;;;;5094709;28;20348;-73
2023/06/24 03:33:27;;;;;;;;;;;27.00;97.60;;;;;;5095142;28;19912;-73
2023/06/24 03:35:54;;;;;;;;;;;26.90;97.80;;;;;;5094739;28;19914;-74
2023/06/24 03:38:21;;;;;;;;;;;26.70;98.00;;;;;;5076313;28;19916;-74
2023/06/24 03:40:47;;;;;;;;;;;26.70;98.10;;;;;;5076361;28;19908;-73
2023/06/24 03:43:12;;;;;;;;;;;26.70;98.30;;;;;;5094845;28;19977;-74
2023/06/24 03:45:38;;;;;;;;;;;26.70;98.10;;;;;;5094662;28;19908;-73
2023/06/24 03:48:04;;;;;;;;;;;26.80;98.00;;;;;;5076240;28;20433;-73
2023/06/24 03:50:30;;;;;;;;;;;26.80;98.00;;;;;;5076126;28;19965;-73
2023/06/24 03:52:56;;;;;;;;;;;26.70;98.10;;;;;;5075837;28;19916;-73
2023/06/24 03:55:21;;;;;;;;;;;26.80;98.10;;;;;;5094359;28;19999;-73
2023/06/24 03:57:47;;;;;;;;;;;26.80;98.20;;;;;;5094288;28;20291;-74
2023/06/24 04:00:16;;;;;;;;;;;26.80;98.20;;;;;;5094700;28;19908;-73
2023/06/24 04:02:42;;;;;;;;;;;26.80;98.00;;;;;;5094147;28;19908;-73
2023/06/24 04:05:09;;;;;;;;;;;26.90;98.00;;;;;;5094067;28;20319;-73
2023/06/24 04:07:35;;;;;;;;;;;27.00;97.80;;;;;;5094184;28;19946;-73
2023/06/24 04:10:02;;;;;;;;;;;26.90;97.80;;;;;;5093991;28;19908;-73
2023/06/24 04:12:28;;;;;;;;;;;26.80;97.90;;;;;;5093808;28;19920;-73
2023/06/24 04:14:54;;;;;;;;;;;26.80;97.90;;;;;;5093989;28;19908;-74
2023/06/24 04:17:20;;;;;;;;;;;26.80;98.00;;;;;;5094284;28;20364;-73
2023/06/24 04:19:45;;;;;;;;;;;26.80;98.00;;;;;;5093921;28;19908;-73
2023/06/24 04:22:11;;;;;;;;;;;26.80;98.00;;;;;;5093910;28;20355;-73
2023/06/24 04:24:37;;;;;;;;;;;26.90;98.00;;;;;;5094051;28;20404;-73
2023/06/24 04:27:03;;;;;;;;;;;27.00;98.00;;;;;;5094031;28;20280;-74
2023/06/24 04:29:29;;;;;;;;;;;27.00;98.10;;;;;;5093991;28;19915;-73
2023/06/24 04:31:55;;;;;;;;;;;26.90;98.20;;;;;;5093622;28;20014;-73
2023/06/24 04:34:20;;;;;;;;;;;26.80;98.30;;;;;;5093653;28;20317;-73
2023/06/24 04:36:46;;;;;;;;;;;27.00;98.20;;;;;;5075274;28;19909;-74
2023/06/24 04:39:12;;;;;;;;;;;27.00;98.20;;;;;;5093560;28;19988;-74
2023/06/24 04:41:38;;;;;;;;;;;27.10;98.20;;;;;;5093623;28;19915;-75
2023/06/24 04:44:05;;;;;;;;;;;27.20;98.20;;;;;;5093428;28;20071;-74
2023/06/24 04:46:32;;;;;;;;;;;27.30;98.10;;;;;;5075455;28;20364;-74
2023/06/24 04:48:58;;;;;;;;;;;27.30;98.10;;;;;;5093670;28;19961;-74
2023/06/24 04:51:24;;;;;;;;;;;27.40;98.10;;;;;;5093184;28;19919;-74
2023/06/24 04:53:49;;;;;;;;;;;27.40;98.10;;;;;;5093573;28;19920;-74
2023/06/24 04:56:15;;;;;;;;;;;27.50;97.90;;;;;;5093395;28;19923;-74
2023/06/24 04:58:41;;;;;;;;;;;27.40;98.00;;;;;;5093733;28;19908;-74
2023/06/24 05:01:07;;;;;;;;;;;27.40;98.10;;;;;;5075118;28;19915;-75
2023/06/24 05:03:33;;;;;;;;;;;27.60;98.00;;;;;;5093650;28;19908;-74
2023/06/24 05:05:59;;;;;;;;;;;27.80;97.80;;;;;;5093447;28;19908;-74
2023/06/24 05:08:25;;;;;;;;;;;28.10;97.50;;;;;;5093008;28;19908;-74
2023/06/24 05:10:51;;;;;;;;;;;28.50;97.10;;;;;;5093588;28;19908;-75
2023/06/24 05:13:18;;;;;;;;;;;28.70;96.90;;;;;;5093257;28;19927;-73
2023/06/24 05:15:43;;;;;;;;;;;28.80;96.80;;;;;;5093151;28;20250;-74
2023/06/24 05:18:10;;;;;;;;;;;28.80;96.70;;;;;;5093515;28;19940;-74
2023/06/24 05:20:36;;;;;;;;;;;28.70;96.70;;;;;;5074989;28;19920;-75
2023/06/24 05:23:01;;;;;;;;;;;28.90;96.60;;;;;;5093193;28;19909;-74
2023/06/24 05:25:27;;;;;;;;;;;29.10;96.50;;;;;;5093265;28;20385;-74
2023/06/24 05:27:53;;;;;;;;;;;29.50;96.30;;;;;;5093084;28;20276;-75
2023/06/24 05:30:19;;;;;;;;;;;29.60;96.20;;;;;;5093478;28;19954;-75
2023/06/24 05:32:45;;;;;;;;;;;29.80;95.90;;;;;;5074771;28;20348;-74
2023/06/24 05:35:10;;;;;;;;;;;30.40;95.30;;;;;;5092927;28;19908;-74
2023/06/24 05:37:36;;;;;;;;;;;30.70;95.00;;;;;;5074563;28;19912;-75
2023/06/24 05:40:04;;;;;;;;;;;31.10;94.90;;;;;;5093094;28;19908;-75
2023/06/24 05:42:30;;;;;;;;;;;31.60;94.50;;;;;;5092882;28;20403;-75
2023/06/24 05:44:56;;;;;;;;;;;31.80;94.10;;;;;;5092886;28;19909;-75
2023/06/24 05:47:22;;;;;;;;;;;32.80;93.30;;;;;;5092891;28;20234;-75
2023/06/24 05:49:48;;;;;;;;;;;33.40;92.90;;;;;;5074537;28;19908;-75
2023/06/24 05:52:13;;;;;;;;;;;33.80;92.30;;;;;;5092485;28;19923;-75
2023/06/24 05:54:39;;;;;;;;;;;33.80;92.10;;;;;;5095008;28;19912;-75
2023/06/24 05:57:06;;;;;;;;;;;34.40;91.90;;;;;;5096714;28;19959;-75
2023/06/24 05:59:32;;;;;;;;;;;35.60;91.20;;;;;;5096751;28;19908;-74
2023/06/24 06:01:58;;;;;;;;;;;36.40;90.50;;;;;;5096457;28;19927;-74
2023/06/24 06:04:24;;;;;;;;;;;36.00;90.40;;;;;;5096758;28;19908;-74
2023/06/24 06:06:49;;;;;;;;;;;36.20;89.70;;;;;;5096258;28;20019;-75
2023/06/24 06:09:15;;;;;;;;;;;36.70;89.00;;;;;;5096674;28;19989;-74
2023/06/24 06:11:41;;;;;;;;;;;37.10;88.50;;;;;;5096065;28;20260;-73
2023/06/24 06:14:07;;;;;;;;;;;37.30;87.50;;;;;;5096453;28;19920;-74
2023/06/24 06:16:33;;;;;;;;;;;37.50;86.90;;;;;;5096461;28;19912;-74
2023/06/24 06:18:59;;;;;;;;;;;38.40;85.70;;;;;;5096212;28;19909;-75
2023/06/24 06:21:25;;;;;;;;;;;38.30;84.80;;;;;;5096398;28;20011;-74
2023/06/24 06:23:50;;;;;;;;;;;38.40;84.90;;;;;;5077528;28;19919;-74
2023/06/24 06:26:16;;;;;;;;;;;39.10;84.20;;;;;;5096301;28;20319;-75
2023/06/24 06:28:42;;;;;;;;;;;39.80;81.70;;;;;;5095813;28;19915;-74
2023/06/24 06:31:08;;;;;;;;;;;41.20;81.40;;;;;;5095732;28;19916;-74
2023/06/24 06:33:34;;;;;;;;;;;41.80;84.20;;;;;;5095744;28;20276;-74
2023/06/24 06:36:00;;;;;;;;;;;41.80;84.80;;;;;;5077550;28;19912;-75
2023/06/24 06:38:26;;;;;;;;;;;42.00;82.40;;;;;;5095598;28;19908;-74
2023/06/24 06:40:52;;;;;;;;;;;41.80;82.50;;;;;;5077417;28;19909;-74
2023/06/24 06:43:18;;;;;;;;;;;41.60;82.00;;;;;;5096105;28;20056;-75
2023/06/24 06:45:43;;;;;;;;;;;42.10;81.80;;;;;;5095676;28;19995;-74
2023/06/24 06:48:09;;;;;;;;;;;42.10;80.00;;;;;;5095982;28;19908;-74
2023/06/24 06:50:35;;;;;;;;;;;42.10;80.80;;;;;;5095422;28;19915;-75
2023/06/24 06:53:01;;;;;;;;;;;41.60;81.40;;;;;;5095102;28;19923;-74
2023/06/24 06:55:27;;;;;;;;;;;41.60;82.50;;;;;;5095815;28;19908;-75
2023/06/24 06:57:53;;;;;;;;;;;40.50;82.50;;;;;;5095703;28;19908;-75
2023/06/24 07:00:19;;;;;;;;;;;40.20;84.30;;;;;;5095770;28;19908;-75
2023/06/24 07:02:45;;;;;;;;;;;38.80;86.70;;;;;;5077441;28;19909;-74
2023/06/24 07:05:11;;;;;;;;;;;39.40;86.90;;;;;;5094813;28;19908;-74
2023/06/24 07:07:38;;;;;;;;;;;39.90;86.60;;;;;;5076943;28;19912;-74
2023/06/24 07:10:04;;;;;;;;;;;39.90;86.00;;;;;;5095399;28;19915;-75
2023/06/24 07:12:30;;;;;;;;;;;39.50;85.70;;;;;;5094788;28;20014;-74
2023/06/24 07:14:56;;;;;;;;;;;40.00;85.00;;;;;;5095590;28;19909;-74
2023/06/24 07:17:22;;;;;;;;;;;39.00;86.80;;;;;;5095155;28;19920;-75
2023/06/24 07:19:48;;;;;;;;;;;38.90;87.20;;;;;;5095156;28;19998;-74
2023/06/24 07:22:14;;;;;;;;;;;39.10;87.70;;;;;;5076597;28;19908;-76
2023/06/24 07:24:40;;;;;;;;;;;39.00;88.60;;;;;;5094830;28;19912;-76
2023/06/24 07:27:06;;;;;;;;;;;38.70;89.00;;;;;;5094793;28;20382;-76
2023/06/24 07:29:32;;;;;;;;;;;38.40;90.10;;;;;;5094817;28;20352;-76
2023/06/24 07:31:58;;;;;;;;;;;38.20;90.40;;;;;;5094612;28;20322;-75
2023/06/24 07:34:23;;;;;;;;;;;38.20;90.10;;;;;;5076332;28;19914;-75
2023/06/24 07:36:50;;;;;;;;;;;38.40;90.10;;;;;;5094889;28;20325;-75
2023/06/24 07:39:16;;;;;;;;;;;37.70;90.30;;;;;;5094647;28;19909;-74
2023/06/24 07:41:42;;;;;;;;;;;37.20;90.50;;;;;;5094876;28;19943;-75
2023/06/24 07:44:09;;;;;;;;;;;35.90;91.20;;;;;;5094450;28;19962;-75
2023/06/24 07:46:36;;;;;;;;;;;36.20;91.30;;;;;;5094380;28;19908;-76
2023/06/24 07:49:01;;;;;;;;;;;36.10;91.60;;;;;;5094537;28;19968;-75
2023/06/24 07:51:27;;;;;;;;;;;36.60;91.30;;;;;;5094293;28;19916;-75
2023/06/24 07:53:53;;;;;;;;;;;37.00;90.70;;;;;;5094025;28;19912;-75
2023/06/24 07:56:19;;;;;;;;;;;36.70;90.00;;;;;;5094229;28;19908;-75
2023/06/24 07:58:45;;;;;;;;;;;37.00;90.10;;;;;;5094300;28;19908;-75
2023/06/24 08:01:10;;;;;;;;;;;37.00;88.20;;;;;;5094039;28;19923;-76
2023/06/24 08:03:37;;;;;;;;;;;36.70;87.40;;;;;;5094069;28;19912;-74
2023/06/24 08:06:03;;;;;;;;;;;36.20;88.70;;;;;;5094070;28;19908;-75
2023/06/24 08:08:28;;;;;;;;;;;36.00;90.20;;;;;;5093839;28;19977;-75
2023/06/24 08:10:54;;;;;;;;;;;36.20;90.60;;;;;;5093996;28;20352;-75
2023/06/24 08:13:20;;;;;;;;;;;36.50;91.20;;;;;;5093595;28;19924;-75
2023/06/24 08:15:46;;;;;;;;;;;36.70;91.90;;;;;;5093664;28;20355;-75
2023/06/24 08:18:12;;;;;;;;;;;36.00;93.40;;;;;;5093397;28;19912;-74
2023/06/24 08:20:38;;;;;;;;;;;36.00;93.90;;;;;;5093685;28;20349;-75
2023/06/24 08:23:04;;;;;;;;;;;36.00;93.90;;;;;;5093766;28;19978;-75
2023/06/24 08:25:30;;;;;;;;;;;36.20;94.30;;;;;;5093548;28;20028;-75
2023/06/24 08:27:56;;;;;;;;;;;36.20;94.50;;;;;;5093562;28;20307;-75
2023/06/24 08:30:22;;;;;;;;;;;36.30;94.40;;;;;;5094112;28;19914;-75
2023/06/24 08:32:47;;;;;;;;;;;35.70;93.40;;;;;;5093820;28;19916;-75
2023/06/24 08:35:13;;;;;;;;;;;35.80;93.80;;;;;;5094052;28;19908;-75
2023/06/24 08:37:39;;;;;;;;;;;35.90;94.40;;;;;;5093401;28;19908;-75
2023/06/24 08:40:06;;;;;;;;;;;34.40;94.80;;;;;;5094023;28;19916;-75
2023/06/24 08:42:31;;;;;;;;;;;35.20;95.30;;;;;;5093746;28;19908;-75
2023/06/24 08:44:58;;;;;;;;;;;35.70;94.30;;;;;;5093897;28;19960;-75
2023/06/24 08:47:24;;;;;;;;;;;36.00;92.90;;;;;;5075291;28;20288;-74
2023/06/24 08:49:55;;;;;;;;;;;36.00;92.20;;;;;;5093256;28;20003;-74
2023/06/24 08:52:25;;;;;;;;;;;36.50;91.20;;;;;;5093478;28;19916;-75
2023/06/24 08:54:51;;;;;;;;;;;36.70;90.40;;;;;;5093437;28;19908;-75
2023/06/24 08:57:18;;;;;;;;;;;36.60;90.80;;;;;;5093317;28;19943;-76
2023/06/24 08:59:47;;;;;;;;;;;37.00;90.70;;;;;;5093679;28;19961;-75
2023/06/24 09:02:13;;;;;;;;;;;36.90;90.40;;;;;;5075084;28;19915;-74
2023/06/24 09:04:40;;;;;;;;;;;36.20;90.70;;;;;;5074905;28;19991;-75
2023/06/24 09:07:06;;;;;;;;;;;36.30;90.10;;;;;;5092988;28;19912;-75
2023/06/24 09:09:32;;;;;;;;;;;35.90;90.40;;;;;;5093007;28;19908;-75
2023/06/24 09:11:58;;;;;;;;;;;36.30;90.80;;;;;;5092829;28;20110;-74
2023/06/24 09:14:25;;;;;;;;;;;36.50;91.00;;;;;;5074796;28;20360;-74
2023/06/24 09:16:55;;;;;;;;;;;36.40;91.50;;;;;;5074839;28;19913;-74
2023/06/24 09:19:21;;;;;;;;;;;36.50;92.10;;;;;;5092890;28;19916;-75
2023/06/24 09:21:47;;;;;;;;;;;36.30;92.20;;;;;;5093482;28;19908;-74
2023/06/24 09:24:13;;;;;;;;;;;35.80;92.60;;;;;;5092587;28;19970;-74
2023/06/24 09:26:42;;;;;;;;;;;35.90;93.40;;;;;;5092994;28;19984;-76
2023/06/24 09:29:08;;;;;;;;;;;36.00;93.70;;;;;;5096367;28;20284;-75
2023/06/24 09:31:34;;;;;;;;;;;35.90;93.60;;;;;;5097109;28;19912;-76
2023/06/24 09:33:59;;;;;;;;;;;35.70;93.70;;;;;;5097685;28;19915;-76
2023/06/24 09:36:25;;;;;;;;;;;35.70;93.30;;;;;;5097232;28;19908;-74
2023/06/24 09:38:51;;;;;;;;;;;35.60;93.10;;;;;;5096785;28;19954;-73
2023/06/24 09:41:17;;;;;;;;;;;35.40;93.10;;;;;;5096724;28;19908;-73
2023/06/24 09:43:44;;;;;;;;;;;35.50;92.50;;;;;;5096664;28;20217;-71
2023/06/24 09:46:14;;;;;;;;;;;35.00;92.70;;;;;;5096690;28;19908;-74
2023/06/24 09:48:40;;;;;;;;;;;35.00;92.30;;;;;;5096983;28;20356;-74
2023/06/24 09:51:06;;;;;;;;;;;34.90;91.90;;;;;;5096891;28;19908;-75
2023/06/24 09:53:33;;;;;;;;;;;34.90;92.20;;;;;;5096651;28;19922;-75
2023/06/24 09:56:00;;;;;;;;;;;35.30;92.70;;;;;;5096751;28;19950;-74
2023/06/24 09:58:27;;;;;;;;;;;35.30;92.00;;;;;;5096954;28;20010;-74
2023/06/24 10:00:54;;;;;;;;;;;35.00;93.00;;;;;;5096826;28;19998;-74
2023/06/24 10:03:20;;;;;;;;;;;35.20;93.10;;;;;;5096504;28;19934;-74
2023/06/24 10:05:45;;;;;;;;;;;35.40;93.20;;;;;;5096506;28;19908;-74
2023/06/24 10:08:13;;;;;;;;;;;35.30;93.10;;;;;;5096255;28;20427;-74
2023/06/24 10:10:39;;;;;;;;;;;35.30;93.10;;;;;;5096409;28;19915;-74
2023/06/24 10:13:06;;;;;;;;;;;35.00;93.90;;;;;;5096058;28;19920;-74
2023/06/24 10:15:32;;;;;;;;;;;34.80;94.30;;;;;;5096058;28;20011;-74
2023/06/24 10:18:01;;;;;;;;;;;34.60;94.80;;;;;;5096624;28;20010;-74
2023/06/24 10:20:27;;;;;;;;;;;34.60;95.10;;;;;;5077792;28;19915;-74
2023/06/24 10:22:53;;;;;;;;;;;34.70;95.00;;;;;;5077627;28;19909;-74
2023/06/24 10:25:20;;;;;;;;;;;35.00;95.00;;;;;;5096165;28;19915;-74
2023/06/24 10:27:50;;;;;;;;;;;34.70;94.90;;;;;;5096123;28;20272;-74
2023/06/24 10:30:20;;;;;;;;;;;34.60;95.20;;;;;;5077725;28;19915;-74
2023/06/24 10:32:50;;;;;;;;;;;34.50;95.10;;;;;;5096126;28;19923;-74
2023/06/24 10:35:29;;;;;;;;;;;34.50;94.30;;;;;;5095833;28;19908;-74
2023/06/24 10:37:59;;;;;;;;;;;34.20;94.50;;;;;;5095483;28;19908;-75
2023/06/24 10:40:38;;;;;;;;;;;34.10;95.10;;;;;;5094845;28;19908;-73
2023/06/24 10:43:24;;;;;;;;;;;34.30;95.00;;;;;;5095618;28;19994;-74
2023/06/24 10:45:50;;;;;;;;;;;34.10;94.60;;;;;;5095121;28;19908;-74
2023/06/24 10:48:19;;;;;;;;;;;33.90;94.50;;;;;;5095466;28;19915;-74
2023/06/24 10:50:45;;;;;;;;;;;33.90;95.20;;;;;;5095755;28;19998;-74
2023/06/24 10:53:12;;;;;;;;;;;33.80;95.00;;;;;;5095329;28;20019;-74
2023/06/24 10:55:38;;;;;;;;;;;33.90;95.80;;;;;;5096086;28;20309;-74
2023/06/24 10:58:11;;;;;;;;;;;33.90;96.50;;;;;;5095561;28;20437;-76
2023/06/24 11:00:37;;;;;;;;;;;33.60;95.60;;;;;;5077358;28;19916;-74
2023/06/24 11:03:13;;;;;;;;;;;33.70;95.30;;;;;;5095228;28;20473;-74
2023/06/24 11:05:40;;;;;;;;;;;33.90;95.40;;;;;;5095376;28;19912;-75
2023/06/24 11:08:06;;;;;;;;;;;33.90;94.50;;;;;;5095317;28;19914;-74
2023/06/24 11:10:32;;;;;;;;;;;33.90;94.00;;;;;;5095160;28;19947;-75
2023/06/24 11:13:04;;;;;;;;;;;33.80;94.00;;;;;;5095051;28;19963;-74
2023/06/24 11:15:30;;;;;;;;;;;33.80;94.40;;;;;;5095239;28;19912;-74
2023/06/24 11:17:56;;;;;;;;;;;33.50;92.10;;;;;;5076944;28;20378;-75
2023/06/24 11:20:22;;;;;;;;;;;33.50;92.00;;;;;;5095063;28;19908;-74
2023/06/24 11:22:48;;;;;;;;;;;33.60;91.60;;;;;;5094911;28;19908;-74
2023/06/24 11:25:15;;;;;;;;;;;33.50;92.70;;;;;;5095354;28;20279;-74
2023/06/24 11:27:41;;;;;;;;;;;33.40;92.10;;;;;;5076463;28;19934;-74
2023/06/24 11:30:07;;;;;;;;;;;33.50;92.60;;;;;;5076584;28;20364;-74
2023/06/24 11:32:36;;;;;;;;;;;33.00;93.60;;;;;;5094925;28;19943;-74
2023/06/24 11:35:04;;;;;;;;;;;33.20;91.70;;;;;;5094583;28;19915;-75
2023/06/24 11:37:31;;;;;;;;;;;33.00;93.50;;;;;;5094802;28;19912;-74
2023/06/24 11:40:07;;;;;;;;;;;32.90;94.30;;;;;;5094882;28;19916;-74
2023/06/24 11:42:35;;;;;;;;;;;33.20;95.00;;;;;;5094893;28;19915;-74
2023/06/24 11:45:02;;;;;;;;;;;32.90;95.00;;;;;;5094581;28;19916;-74
2023/06/24 11:47:31;;;;;;;;;;;33.00;94.60;;;;;;5094474;28;19909;-74
2023/06/24 11:49:58;;;;;;;;;;;33.20;95.40;;;;;;5094491;28;19952;-74
2023/06/24 11:52:33;;;;;;;;;;;32.70;96.50;;;;;;5093108;28;19978;-74
2023/06/24 11:54:59;;;;;;;;;;;32.10;97.00;;;;;;5076120;28;20006;-74
2023/06/24 11:57:44;;;;;;;;;;;32.50;97.40;;;;;;5094399;28;20351;-74
2023/06/24 12:00:13;;;;;;;;;;;32.70;97.50;;;;;;5094301;28;19912;-74
2023/06/24 12:02:38;;;;;;;;;;;32.90;98.10;;;;;;5094614;28;19919;-74
2023/06/24 12:05:04;;;;;;;;;;;32.90;98.20;;;;;;5093948;28;19908;-74
2023/06/24 12:07:30;;;;;;;;;;;32.80;98.60;;;;;;5075473;28;20272;-74
2023/06/24 12:09:56;;;;;;;;;;;32.80;99.00;;;;;;5094088;28;19908;-74
2023/06/24 12:12:22;;;;;;;;;;;32.70;99.10;;;;;;5093940;28;20387;-74
2023/06/24 12:14:48;;;;;;;;;;;32.70;99.60;;;;;;5094039;28;20002;-74
2023/06/24 12:17:13;;;;;;;;;;;32.50;99.90;;;;;;5075252;28;19913;-74
2023/06/24 12:19:39;;;;;;;;;;;32.50;99.90;;;;;;5093968;28;19908;-74
2023/06/24 12:22:05;;;;;;;;;;;32.50;99.70;;;;;;5075687;28;19999;-74
2023/06/24 12:24:31;;;;;;;;;;;32.40;99.90;;;;;;5075286;28;19912;-74
2023/06/24 12:26:57;;;;;;;;;;;32.20;99.90;;;;;;5093560;28;19931;-74
2023/06/24 12:29:22;;;;;;;;;;;32.40;99.90;;;;;;5094084;28;20356;-73
2023/06/24 12:31:48;;;;;;;;;;;32.10;99.90;;;;;;5093976;28;19916;-74
2023/06/24 12:34:14;;;;;;;;;;;31.80;99.90;;;;;;5093779;28;20413;-74
2023/06/24 12:36:40;;;;;;;;;;;31.80;99.90;;;;;;5093931;28;19908;-74
2023/06/24 12:39:05;;;;;;;;;;;32.00;99.90;;;;;;5093242;28;19908;-73
2023/06/24 12:41:33;;;;;;;;;;;31.70;99.90;;;;;;5093352;28;19912;-74
2023/06/24 12:43:59;;;;;;;;;;;31.80;99.90;;;;;;5075134;28;19912;-74
2023/06/24 12:46:24;;;;;;;;;;;31.70;99.90;;;;;;5093400;28;19912;-74
2023/06/24 12:48:50;;;;;;;;;;;32.00;99.90;;;;;;5093452;28;19908;-74
2023/06/24 12:51:16;;;;;;;;;;;31.70;99.90;;;;;;5074912;28;20368;-74
2023/06/24 12:53:42;;;;;;;;;;;31.90;99.90;;;;;;5092921;28;20271;-74
2023/06/24 12:56:08;;;;;;;;;;;31.80;99.90;;;;;;5093212;28;19908;-73
2023/06/24 12:58:34;;;;;;;;;;;31.70;99.90;;;;;;5093519;28;20002;-75
2023/06/24 13:01:00;;;;;;;;;;;31.70;99.90;;;;;;5093242;28;19954;-74
2023/06/24 13:03:26;;;;;;;;;;;31.70;99.90;;;;;;5093283;28;19915;-74
2023/06/24 13:05:51;;;;;;;;;;;31.80;99.90;;;;;;5094690;28;19912;-74
2023/06/24 13:08:17;;;;;;;;;;;31.90;99.90;;;;;;5093079;28;19946;-75
2023/06/24 13:10:43;;;;;;;;;;;31.70;99.90;;;;;;5093187;28;20352;-75
2023/06/24 13:13:11;;;;;;;;;;;31.60;99.90;;;;;;5092073;28;20622;-75
2023/06/24 13:15:37;;;;;;;;;;;31.50;99.90;;;;;;5092930;28;19931;-75
2023/06/24 13:18:03;;;;;;;;;;;31.20;99.90;;;;;;5093633;28;19908;-75
2023/06/24 13:20:29;;;;;;;;;;;31.10;99.90;;;;;;5093101;28;19930;-76
2023/06/24 13:22:55;;;;;;;;;;;30.90;99.90;;;;;;5092963;28;19908;-75
2023/06/24 13:25:21;;;;;;;;;;;31.00;99.90;;;;;;5093987;28;19919;-74
2023/06/24 13:27:47;;;;;;;;;;;31.10;99.90;;;;;;5092972;28;20352;-74
2023/06/24 13:30:15;;;;;;;;;;;30.80;99.90;;;;;;5093537;28;20318;-74
2023/06/24 13:32:41;;;;;;;;;;;30.80;99.90;;;;;;5074511;28;19916;-74
2023/06/24 13:35:07;;;;;;;;;;;31.00;99.90;;;;;;5092747;28;20284;-74
2023/06/24 13:37:32;;;;;;;;;;;30.90;99.90;;;;;;5092752;28;20015;-73
2023/06/24 13:39:58;;;;;;;;;;;30.40;99.90;;;;;;5093172;28;20332;-74
2023/06/24 13:42:25;;;;;;;;;;;30.50;99.90;;;;;;5074666;28;19910;-73
2023/06/24 13:44:51;;;;;;;;;;;30.90;99.90;;;;;;5093419;28;19959;-73
2023/06/24 13:47:17;;;;;;;;;;;31.20;99.90;;;;;;5093021;28;19973;-74
2023/06/24 13:49:43;;;;;;;;;;;31.00;99.90;;;;;;5092705;28;19915;-75
2023/06/24 13:52:14;;;;;;;;;;;31.20;99.90;;;;;;5093112;28;20030;-73
2023/06/24 13:54:40;;;;;;;;;;;31.00;99.90;;;;;;5092978;28;19908;-74
2023/06/24 13:57:06;;;;;;;;;;;31.00;99.90;;;;;;5092747;28;20273;-73
2023/06/24 13:59:32;;;;;;;;;;;30.90;99.90;;;;;;5092588;28;19938;-73
2023/06/24 14:01:58;;;;;;;;;;;30.70;99.90;;;;;;5092926;28;19909;-73
2023/06/24 14:04:23;;;;;;;;;;;30.80;99.90;;;;;;5093112;28;19948;-73
2023/06/24 14:06:49;;;;;;;;;;;31.00;99.90;;;;;;5074557;28;19909;-74
2023/06/24 14:09:15;;;;;;;;;;;31.00;99.90;;;;;;5092404;28;19943;-74
2023/06/24 14:11:41;;;;;;;;;;;30.80;99.90;;;;;;5092574;28;19927;-74
2023/06/24 14:14:07;;;;;;;;;;;30.90;99.90;;;;;;5092499;28;19912;-74